Oakdale, Kentucky
Current Conditions -  °F | °C
As of 8:53 AM on Sunday 21 Dec 2014 (Local Time) from KPAH Reporting Station
Haze Haze  
Wind Chill:   Ceiling: Unl
Heat Index:   Visibility: 4mi
Dew Point: -2°   Wind: 3mph
Humidity: 85%   Direction: 80°E
Pressure: 30.24"   Gusts: NA
Location:  37.0331°N, 88.716°W
Report Text: KPAH 211453Z 08003KT 4SM BR CLR 00/M02 A3024 RMK AO2 SLP242 I3000 T00001022 58002
Loading
Personal Weather Stations






























Interactive Weather Map New forecast layout! Learn more

10-Day Weather Forecast

Advertisements
Track Severe Weather on mobile